sensor_id;sensor_type;location;lat;lon;timestamp;temperature;humidity
34574;DHT22;20809;49.594;8.734;2022-07-18T00:00:57;16.00;91.00
34574;DHT22;20809;49.594;8.734;2022-07-18T00:03:59;15.90;91.70
34574;DHT22;20809;49.594;8.734;2022-07-18T00:07:02;15.80;92.40
34574;DHT22;20809;49.594;8.734;2022-07-18T00:10:04;15.80;93.10
34574;DHT22;20809;49.594;8.734;2022-07-18T00:13:05;15.70;93.70
34574;DHT22;20809;49.594;8.734;2022-07-18T00:16:06;15.60;94.90
34574;DHT22;20809;49.594;8.734;2022-07-18T00:19:10;15.50;96.00
34574;DHT22;20809;49.594;8.734;2022-07-18T00:22:11;15.40;97.50
34574;DHT22;20809;49.594;8.734;2022-07-18T00:25:13;15.40;99.10
34574;DHT22;20809;49.594;8.734;2022-07-18T00:28:14;15.30;99.90
34574;DHT22;20809;49.594;8.734;2022-07-18T00:31:15;15.30;99.90
34574;DHT22;20809;49.594;8.734;2022-07-18T00:34:22;15.30;99.90
34574;DHT22;20809;49.594;8.734;2022-07-18T00:37:23;15.30;99.90
34574;DHT22;20809;49.594;8.734;2022-07-18T00:40:23;15.20;99.90
34574;DHT22;20809;49.594;8.734;2022-07-18T00:43:31;15.10;99.90
34574;DHT22;20809;49.594;8.734;2022-07-18T00:46:40;15.10;99.90
34574;DHT22;20809;49.594;8.734;2022-07-18T00:49:44;15.10;99.90
34574;DHT22;20809;49.594;8.734;2022-07-18T00:52:49;15.10;99.90
34574;DHT22;20809;49.594;8.734;2022-07-18T01:19:10;15.00;99.90
34574;DHT22;20809;49.594;8.734;2022-07-18T01:22:11;15.00;99.90
34574;DHT22;20809;49.594;8.734;2022-07-18T01:25:13;15.00;99.90
34574;DHT22;20809;49.594;8.734;2022-07-18T01:28:17;14.90;99.90
34574;DHT22;20809;49.594;8.734;2022-07-18T01:31:18;14.90;99.90
34574;DHT22;20809;49.594;8.734;2022-07-18T01:34:23;14.80;99.90
34574;DHT22;20809;49.594;8.734;2022-07-18T01:37:23;14.80;99.90
34574;DHT22;20809;49.594;8.734;2022-07-18T01:40:25;14.70;99.90
34574;DHT22;20809;49.594;8.734;2022-07-18T01:43:26;14.70;99.90
34574;DHT22;20809;49.594;8.734;2022-07-18T01:46:27;14.60;99.90
34574;DHT22;20809;49.594;8.734;2022-07-18T01:49:28;14.50;99.90
34574;DHT22;20809;49.594;8.734;2022-07-18T01:52:30;14.50;99.90
34574;DHT22;20809;49.594;8.734;2022-07-18T01:55:31;14.40;99.90
34574;DHT22;20809;49.594;8.734;2022-07-18T01:58:31;14.40;99.90
34574;DHT22;20809;49.594;8.734;2022-07-18T02:01:32;14.20;99.90
34574;DHT22;20809;49.594;8.734;2022-07-18T02:04:33;14.20;99.90
34574;DHT22;20809;49.594;8.734;2022-07-18T02:07:52;14.20;99.90
34574;DHT22;20809;49.594;8.734;2022-07-18T02:10:52;14.10;99.90
34574;DHT22;20809;49.594;8.734;2022-07-18T02:13:54;14.00;99.90
34574;DHT22;20809;49.594;8.734;2022-07-18T02:16:55;13.90;99.90
34574;DHT22;20809;49.594;8.734;2022-07-18T02:19:55;13.90;99.90
34574;DHT22;20809;49.594;8.734;2022-07-18T02:22:56;13.90;99.90
34574;DHT22;20809;49.594;8.734;2022-07-18T02:25:57;13.90;99.90
34574;DHT22;20809;49.594;8.734;2022-07-18T02:28:57;13.90;99.90
34574;DHT22;20809;49.594;8.734;2022-07-18T02:31:58;13.90;99.90
34574;DHT22;20809;49.594;8.734;2022-07-18T02:34:59;13.90;99.90
34574;DHT22;20809;49.594;8.734;2022-07-18T02:38:00;13.90;99.90
34574;DHT22;20809;49.594;8.734;2022-07-18T02:41:00;13.80;99.90
34574;DHT22;20809;49.594;8.734;2022-07-18T02:44:01;13.80;99.90
34574;DHT22;20809;49.594;8.734;2022-07-18T02:47:02;13.70;99.90
34574;DHT22;20809;49.594;8.734;2022-07-18T02:50:03;13.70;99.90
34574;DHT22;20809;49.594;8.734;2022-07-18T02:53:04;13.60;99.90
34574;DHT22;20809;49.594;8.734;2022-07-18T02:56:05;13.60;99.90
34574;DHT22;20809;49.594;8.734;2022-07-18T02:59:06;13.50;99.90
34574;DHT22;20809;49.594;8.734;2022-07-18T03:02:06;13.50;99.90
34574;DHT22;20809;49.594;8.734;2022-07-18T03:05:07;13.50;99.90
34574;DHT22;20809;49.594;8.734;2022-07-18T03:08:08;13.40;99.90
34574;DHT22;20809;49.594;8.734;2022-07-18T03:11:09;13.40;99.90
34574;DHT22;20809;49.594;8.734;2022-07-18T03:14:10;13.40;99.90
34574;DHT22;20809;49.594;8.734;2022-07-18T03:17:10;13.50;99.90
34574;DHT22;20809;49.594;8.734;2022-07-18T03:20:11;13.40;99.90
34574;DHT22;20809;49.594;8.734;2022-07-18T03:23:12;13.40;99.90
34574;DHT22;20809;49.594;8.734;2022-07-18T03:26:13;13.40;99.90
34574;DHT22;20809;49.594;8.734;2022-07-18T03:29:13;13.30;99.90
34574;DHT22;20809;49.594;8.734;2022-07-18T03:32:14;13.30;99.90
34574;DHT22;20809;49.594;8.734;2022-07-18T03:35:15;13.40;99.90
34574;DHT22;20809;49.594;8.734;2022-07-18T03:38:16;13.40;99.90
34574;DHT22;20809;49.594;8.734;2022-07-18T03:41:17;13.30;99.90
34574;DHT22;20809;49.594;8.734;2022-07-18T03:44:18;13.30;99.90
34574;DHT22;20809;49.594;8.734;2022-07-18T03:47:18;13.30;99.90
34574;DHT22;20809;49.594;8.734;2022-07-18T03:50:19;13.30;99.90
34574;DHT22;20809;49.594;8.734;2022-07-18T03:53:20;13.20;99.90
34574;DHT22;20809;49.594;8.734;2022-07-18T03:56:21;13.30;99.90
34574;DHT22;20809;49.594;8.734;2022-07-18T03:59:22;13.20;99.90
34574;DHT22;20809;49.594;8.734;2022-07-18T04:02:22;13.20;99.90
34574;DHT22;20809;49.594;8.734;2022-07-18T04:05:23;13.30;99.90
34574;DHT22;20809;49.594;8.734;2022-07-18T04:08:24;13.30;99.90
34574;DHT22;20809;49.594;8.734;2022-07-18T04:11:25;13.20;99.90
34574;DHT22;20809;49.594;8.734;2022-07-18T04:14:26;13.20;99.90
34574;DHT22;20809;49.594;8.734;2022-07-18T04:17:26;13.20;99.90
34574;DHT22;20809;49.594;8.734;2022-07-18T04:20:30;13.30;99.90
34574;DHT22;20809;49.594;8.734;2022-07-18T04:23:31;13.30;99.90
34574;DHT22;20809;49.594;8.734;2022-07-18T04:26:32;13.30;99.90
34574;DHT22;20809;49.594;8.734;2022-07-18T04:29:32;13.30;99.90
34574;DHT22;20809;49.594;8.734;2022-07-18T04:32:33;13.40;99.90
34574;DHT22;20809;49.594;8.734;2022-07-18T04:35:34;13.40;99.90
34574;DHT22;20809;49.594;8.734;2022-07-18T04:38:36;13.50;99.90
34574;DHT22;20809;49.594;8.734;2022-07-18T04:41:37;13.60;99.90
34574;DHT22;20809;49.594;8.734;2022-07-18T04:44:39;13.80;99.90
34574;DHT22;20809;49.594;8.734;2022-07-18T04:47:40;14.00;99.90
34574;DHT22;20809;49.594;8.734;2022-07-18T04:50:40;14.20;99.90
34574;DHT22;20809;49.594;8.734;2022-07-18T04:53:41;14.40;99.90
34574;DHT22;20809;49.594;8.734;2022-07-18T04:56:42;14.70;99.90
34574;DHT22;20809;49.594;8.734;2022-07-18T04:59:44;15.20;99.90
34574;DHT22;20809;49.594;8.734;2022-07-18T05:02:47;15.80;99.90
34574;DHT22;20809;49.594;8.734;2022-07-18T05:05:48;16.40;99.90
34574;DHT22;20809;49.594;8.734;2022-07-18T05:08:49;16.90;99.90
34574;DHT22;20809;49.594;8.734;2022-07-18T05:11:50;17.30;99.90
34574;DHT22;20809;49.594;8.734;2022-07-18T05:14:51;17.30;99.90
34574;DHT22;20809;49.594;8.734;2022-07-18T05:17:52;17.20;99.90
34574;DHT22;20809;49.594;8.734;2022-07-18T05:20:53;17.20;99.90
34574;DHT22;20809;49.594;8.734;2022-07-18T05:23:54;17.10;99.90
34574;DHT22;20809;49.594;8.734;2022-07-18T05:26:55;17.10;99.90
34574;DHT22;20809;49.594;8.734;2022-07-18T05:29:56;17.10;99.90
34574;DHT22;20809;49.594;8.734;2022-07-18T05:32:57;17.10;99.90
34574;DHT22;20809;49.594;8.734;2022-07-18T05:35:57;17.20;99.90
34574;DHT22;20809;49.594;8.734;2022-07-18T05:38:58;17.30;99.90
34574;DHT22;20809;49.594;8.734;2022-07-18T05:41:59;17.40;99.90
34574;DHT22;20809;49.594;8.734;2022-07-18T05:45:02;17.60;99.90
34574;DHT22;20809;49.594;8.734;2022-07-18T05:48:03;17.80;99.90
34574;DHT22;20809;49.594;8.734;2022-07-18T05:51:05;18.10;99.90
34574;DHT22;20809;49.594;8.734;2022-07-18T05:54:06;18.30;99.90
34574;DHT22;20809;49.594;8.734;2022-07-18T05:57:07;18.40;99.90
34574;DHT22;20809;49.594;8.734;2022-07-18T06:00:10;18.60;99.90
34574;DHT22;20809;49.594;8.734;2022-07-18T06:03:11;19.00;99.90
34574;DHT22;20809;49.594;8.734;2022-07-18T06:06:12;19.30;99.90
34574;DHT22;20809;49.594;8.734;2022-07-18T06:09:13;19.50;99.90
34574;DHT22;20809;49.594;8.734;2022-07-18T06:12:15;19.70;99.90
34574;DHT22;20809;49.594;8.734;2022-07-18T06:15:16;19.80;99.90
34574;DHT22;20809;49.594;8.734;2022-07-18T06:18:17;19.90;99.90
34574;DHT22;20809;49.594;8.734;2022-07-18T06:21:17;20.10;99.90
34574;DHT22;20809;49.594;8.734;2022-07-18T06:24:18;20.30;99.90
34574;DHT22;20809;49.594;8.734;2022-07-18T06:27:19;20.50;99.90
34574;DHT22;20809;49.594;8.734;2022-07-18T06:30:20;20.60;99.90
34574;DHT22;20809;49.594;8.734;2022-07-18T06:33:23;20.80;99.90
34574;DHT22;20809;49.594;8.734;2022-07-18T06:36:24;20.80;99.90
34574;DHT22;20809;49.594;8.734;2022-07-18T06:39:25;20.90;99.20
34574;DHT22;20809;49.594;8.734;2022-07-18T06:42:25;21.20;98.40
34574;DHT22;20809;49.594;8.734;2022-07-18T06:45:26;21.40;97.70
34574;DHT22;20809;49.594;8.734;2022-07-18T06:48:27;21.70;96.50
34574;DHT22;20809;49.594;8.734;2022-07-18T06:51:33;22.00;95.40
34574;DHT22;20809;49.594;8.734;2022-07-18T06:54:34;22.30;95.00
34574;DHT22;20809;49.594;8.734;2022-07-18T06:57:37;22.70;90.80
34574;DHT22;20809;49.594;8.734;2022-07-18T07:00:37;23.20;86.80
34574;DHT22;20809;49.594;8.734;2022-07-18T07:03:38;23.50;84.60
34574;DHT22;20809;49.594;8.734;2022-07-18T07:06:39;23.80;82.10
34574;DHT22;20809;49.594;8.734;2022-07-18T07:09:40;24.00;79.50
34574;DHT22;20809;49.594;8.734;2022-07-18T07:12:46;24.10;79.70
34574;DHT22;20809;49.594;8.734;2022-07-18T07:15:46;24.00;79.10
34574;DHT22;20809;49.594;8.734;2022-07-18T07:18:47;24.00;77.50
34574;DHT22;20809;49.594;8.734;2022-07-18T07:21:48;24.00;75.50
34574;DHT22;20809;49.594;8.734;2022-07-18T07:24:49;24.10;72.40
34574;DHT22;20809;49.594;8.734;2022-07-18T07:27:51;24.50;70.70
34574;DHT22;20809;49.594;8.734;2022-07-18T07:30:52;24.90;68.40
34574;DHT22;20809;49.594;8.734;2022-07-18T07:33:53;25.30;67.60
34574;DHT22;20809;49.594;8.734;2022-07-18T07:36:53;25.40;67.20
34574;DHT22;20809;49.594;8.734;2022-07-18T07:39:55;25.60;67.10
34574;DHT22;20809;49.594;8.734;2022-07-18T07:43:10;25.60;64.00
34574;DHT22;20809;49.594;8.734;2022-07-18T07:46:11;25.70;60.70
34574;DHT22;20809;49.594;8.734;2022-07-18T07:49:12;25.90;59.80
34574;DHT22;20809;49.594;8.734;2022-07-18T07:52:13;26.20;59.30
34574;DHT22;20809;49.594;8.734;2022-07-18T07:55:14;26.70;59.30
34574;DHT22;20809;49.594;8.734;2022-07-18T07:58:15;27.60;56.50
34574;DHT22;20809;49.594;8.734;2022-07-18T08:01:16;28.40;55.50
34574;DHT22;20809;49.594;8.734;2022-07-18T08:04:20;29.10;55.20
34574;DHT22;20809;49.594;8.734;2022-07-18T08:07:20;29.80;52.90
34574;DHT22;20809;49.594;8.734;2022-07-18T08:10:22;30.60;52.40
34574;DHT22;20809;49.594;8.734;2022-07-18T08:13:22;31.10;50.60
34574;DHT22;20809;49.594;8.734;2022-07-18T08:16:23;32.00;49.60
34574;DHT22;20809;49.594;8.734;2022-07-18T08:19:24;32.70;47.80
34574;DHT22;20809;49.594;8.734;2022-07-18T08:22:25;33.20;46.40
34574;DHT22;20809;49.594;8.734;2022-07-18T08:25:27;33.40;45.40
34574;DHT22;20809;49.594;8.734;2022-07-18T08:28:28;33.50;45.20
34574;DHT22;20809;49.594;8.734;2022-07-18T08:31:29;33.60;45.10
34574;DHT22;20809;49.594;8.734;2022-07-18T08:34:29;33.60;45.30
34574;DHT22;20809;49.594;8.734;2022-07-18T08:37:31;34.00;44.80
34574;DHT22;20809;49.594;8.734;2022-07-18T08:40:32;35.00;43.60
34574;DHT22;20809;49.594;8.734;2022-07-18T08:43:33;35.30;42.50
34574;DHT22;20809;49.594;8.734;2022-07-18T08:46:35;35.60;42.50
34574;DHT22;20809;49.594;8.734;2022-07-18T08:49:36;36.00;42.00
34574;DHT22;20809;49.594;8.734;2022-07-18T08:52:38;36.50;41.30
34574;DHT22;20809;49.594;8.734;2022-07-18T08:55:39;37.20;39.80
34574;DHT22;20809;49.594;8.734;2022-07-18T08:58:40;37.30;39.50
34574;DHT22;20809;49.594;8.734;2022-07-18T09:01:41;37.50;39.10
34574;DHT22;20809;49.594;8.734;2022-07-18T09:04:43;37.90;37.80
34574;DHT22;20809;49.594;8.734;2022-07-18T09:07:44;38.00;38.10
34574;DHT22;20809;49.594;8.734;2022-07-18T09:10:52;38.10;36.20
34574;DHT22;20809;49.594;8.734;2022-07-18T09:13:53;37.70;36.90
34574;DHT22;20809;49.594;8.734;2022-07-18T09:20:13;37.40;33.90
34574;DHT22;20809;49.594;8.734;2022-07-18T09:23:17;37.30;35.10
34574;DHT22;20809;49.594;8.734;2022-07-18T09:26:41;36.30;35.30
34574;DHT22;20809;49.594;8.734;2022-07-18T09:29:42;35.50;35.30
34574;DHT22;20809;49.594;8.734;2022-07-18T09:32:47;36.20;35.60
34574;DHT22;20809;49.594;8.734;2022-07-18T09:35:51;36.00;34.90
34574;DHT22;20809;49.594;8.734;2022-07-18T09:38:53;35.30;35.10
34574;DHT22;20809;49.594;8.734;2022-07-18T09:42:16;33.80;37.50
34574;DHT22;20809;49.594;8.734;2022-07-18T09:45:22;33.70;38.00
34574;DHT22;20809;49.594;8.734;2022-07-18T09:48:24;33.30;37.80
34574;DHT22;20809;49.594;8.734;2022-07-18T09:51:25;33.30;37.60
34574;DHT22;20809;49.594;8.734;2022-07-18T09:54:39;33.40;37.50
34574;DHT22;20809;49.594;8.734;2022-07-18T09:57:40;33.20;38.60
34574;DHT22;20809;49.594;8.734;2022-07-18T10:00:41;32.80;39.50
34574;DHT22;20809;49.594;8.734;2022-07-18T10:03:43;32.80;38.30
34574;DHT22;20809;49.594;8.734;2022-07-18T10:06:43;32.80;38.90
34574;DHT22;20809;49.594;8.734;2022-07-18T10:09:45;32.60;38.80
34574;DHT22;20809;49.594;8.734;2022-07-18T10:12:46;32.20;39.40
34574;DHT22;20809;49.594;8.734;2022-07-18T10:15:48;32.00;40.30
34574;DHT22;20809;49.594;8.734;2022-07-18T10:18:51;31.90;40.60
34574;DHT22;20809;49.594;8.734;2022-07-18T10:21:53;32.10;40.40
34574;DHT22;20809;49.594;8.734;2022-07-18T10:24:55;32.40;40.80
34574;DHT22;20809;49.594;8.734;2022-07-18T10:28:07;32.60;40.90
34574;DHT22;20809;49.594;8.734;2022-07-18T10:31:14;33.00;40.80
34574;DHT22;20809;49.594;8.734;2022-07-18T10:34:15;33.20;39.80
34574;DHT22;20809;49.594;8.734;2022-07-18T10:37:24;33.20;39.40
34574;DHT22;20809;49.594;8.734;2022-07-18T10:40:29;33.20;39.40
34574;DHT22;20809;49.594;8.734;2022-07-18T10:50:01;33.30;38.60
34574;DHT22;20809;49.594;8.734;2022-07-18T10:53:02;33.30;38.90
34574;DHT22;20809;49.594;8.734;2022-07-18T10:56:02;33.30;38.00
34574;DHT22;20809;49.594;8.734;2022-07-18T10:59:23;33.00;38.20
34574;DHT22;20809;49.594;8.734;2022-07-18T11:02:34;32.90;39.70
34574;DHT22;20809;49.594;8.734;2022-07-18T11:05:40;33.20;40.30
34574;DHT22;20809;49.594;8.734;2022-07-18T11:08:42;33.20;38.60
34574;DHT22;20809;49.594;8.734;2022-07-18T11:12:25;33.10;38.60
34574;DHT22;20809;49.594;8.734;2022-07-18T11:21:57;33.80;38.00
34574;DHT22;20809;49.594;8.734;2022-07-18T11:24:58;34.10;37.70
34574;DHT22;20809;49.594;8.734;2022-07-18T11:27:59;34.30;38.10
34574;DHT22;20809;49.594;8.734;2022-07-18T11:31:05;34.50;37.60
34574;DHT22;20809;49.594;8.734;2022-07-18T11:34:06;34.60;37.40
34574;DHT22;20809;49.594;8.734;2022-07-18T11:37:07;34.60;38.30
34574;DHT22;20809;49.594;8.734;2022-07-18T11:40:09;34.80;38.10
34574;DHT22;20809;49.594;8.734;2022-07-18T11:43:11;34.90;37.70
34574;DHT22;20809;49.594;8.734;2022-07-18T11:46:14;34.90;36.80
34574;DHT22;20809;49.594;8.734;2022-07-18T11:49:15;34.80;37.50
34574;DHT22;20809;49.594;8.734;2022-07-18T11:52:18;34.60;37.60
34574;DHT22;20809;49.594;8.734;2022-07-18T11:55:31;34.70;38.10
34574;DHT22;20809;49.594;8.734;2022-07-18T11:58:40;34.80;38.10
34574;DHT22;20809;49.594;8.734;2022-07-18T12:02:02;35.10;37.10
34574;DHT22;20809;49.594;8.734;2022-07-18T12:05:03;35.30;36.70
34574;DHT22;20809;49.594;8.734;2022-07-18T12:08:26;35.40;37.50
34574;DHT22;20809;49.594;8.734;2022-07-18T12:11:29;35.70;36.70
34574;DHT22;20809;49.594;8.734;2022-07-18T12:14:31;35.70;36.60
34574;DHT22;20809;49.594;8.734;2022-07-18T12:24:53;35.90;36.20
34574;DHT22;20809;49.594;8.734;2022-07-18T12:28:18;36.00;36.80
34574;DHT22;20809;49.594;8.734;2022-07-18T12:31:39;36.10;36.30
34574;DHT22;20809;49.594;8.734;2022-07-18T12:34:56;36.20;36.50
34574;DHT22;20809;49.594;8.734;2022-07-18T12:40:59;36.40;36.20
34574;DHT22;20809;49.594;8.734;2022-07-18T12:44:01;36.40;36.20
34574;DHT22;20809;49.594;8.734;2022-07-18T12:47:02;36.60;35.60
34574;DHT22;20809;49.594;8.734;2022-07-18T12:50:04;36.80;35.10
34574;DHT22;20809;49.594;8.734;2022-07-18T12:53:06;36.50;35.60
34574;DHT22;20809;49.594;8.734;2022-07-18T12:56:07;36.20;35.40
34574;DHT22;20809;49.594;8.734;2022-07-18T12:59:09;36.20;36.70
34574;DHT22;20809;49.594;8.734;2022-07-18T13:02:10;36.40;36.30
34574;DHT22;20809;49.594;8.734;2022-07-18T13:05:11;36.60;36.60
34574;DHT22;20809;49.594;8.734;2022-07-18T13:08:12;36.70;35.40
34574;DHT22;20809;49.594;8.734;2022-07-18T13:11:13;36.80;36.30
34574;DHT22;20809;49.594;8.734;2022-07-18T13:14:14;36.90;35.20
34574;DHT22;20809;49.594;8.734;2022-07-18T13:17:16;36.80;35.70
34574;DHT22;20809;49.594;8.734;2022-07-18T13:20:17;36.70;35.60
34574;DHT22;20809;49.594;8.734;2022-07-18T13:23:18;36.60;35.40
34574;DHT22;20809;49.594;8.734;2022-07-18T13:26:19;36.40;35.20
34574;DHT22;20809;49.594;8.734;2022-07-18T13:29:19;35.90;35.70
34574;DHT22;20809;49.594;8.734;2022-07-18T13:32:20;35.60;35.90
34574;DHT22;20809;49.594;8.734;2022-07-18T13:35:21;35.50;36.10
34574;DHT22;20809;49.594;8.734;2022-07-18T13:38:21;35.40;36.50
34574;DHT22;20809;49.594;8.734;2022-07-18T13:41:22;35.50;36.80
34574;DHT22;20809;49.594;8.734;2022-07-18T13:44:23;35.50;37.50
34574;DHT22;20809;49.594;8.734;2022-07-18T13:47:24;35.80;36.50
34574;DHT22;20809;49.594;8.734;2022-07-18T13:50:24;36.30;35.70
34574;DHT22;20809;49.594;8.734;2022-07-18T13:53:26;36.60;35.50
34574;DHT22;20809;49.594;8.734;2022-07-18T13:56:26;36.40;36.30
34574;DHT22;20809;49.594;8.734;2022-07-18T13:59:27;36.30;36.20
34574;DHT22;20809;49.594;8.734;2022-07-18T14:02:31;36.40;35.90
34574;DHT22;20809;49.594;8.734;2022-07-18T14:05:32;36.20;36.20
34574;DHT22;20809;49.594;8.734;2022-07-18T14:08:33;36.40;37.00
34574;DHT22;20809;49.594;8.734;2022-07-18T14:11:33;36.60;37.40
34574;DHT22;20809;49.594;8.734;2022-07-18T14:14:34;37.00;36.30
34574;DHT22;20809;49.594;8.734;2022-07-18T14:17:35;37.20;36.30
34574;DHT22;20809;49.594;8.734;2022-07-18T14:20:36;37.40;36.20
34574;DHT22;20809;49.594;8.734;2022-07-18T14:23:37;37.50;35.60
34574;DHT22;20809;49.594;8.734;2022-07-18T14:26:37;37.40;35.70
34574;DHT22;20809;49.594;8.734;2022-07-18T14:29:38;37.50;36.70
34574;DHT22;20809;49.594;8.734;2022-07-18T14:32:39;37.60;36.70
34574;DHT22;20809;49.594;8.734;2022-07-18T14:35:45;37.80;36.20
34574;DHT22;20809;49.594;8.734;2022-07-18T14:38:49;37.80;35.80
34574;DHT22;20809;49.594;8.734;2022-07-18T14:42:11;37.70;34.80
34574;DHT22;20809;49.594;8.734;2022-07-18T14:45:13;37.70;34.70
34574;DHT22;20809;49.594;8.734;2022-07-18T14:48:14;37.60;35.30
34574;DHT22;20809;49.594;8.734;2022-07-18T14:51:15;37.30;35.10
34574;DHT22;20809;49.594;8.734;2022-07-18T14:54:16;37.20;35.30
34574;DHT22;20809;49.594;8.734;2022-07-18T14:57:17;37.20;35.30
34574;DHT22;20809;49.594;8.734;2022-07-18T15:00:18;37.30;35.40
34574;DHT22;20809;49.594;8.734;2022-07-18T15:03:21;37.40;36.10
34574;DHT22;20809;49.594;8.734;2022-07-18T15:06:22;37.60;36.80
34574;DHT22;20809;49.594;8.734;2022-07-18T15:09:24;37.90;35.90
34574;DHT22;20809;49.594;8.734;2022-07-18T15:12:25;38.00;36.00
34574;DHT22;20809;49.594;8.734;2022-07-18T15:15:26;38.10;35.90
34574;DHT22;20809;49.594;8.734;2022-07-18T15:18:26;38.20;35.30
34574;DHT22;20809;49.594;8.734;2022-07-18T15:21:27;38.10;35.40
34574;DHT22;20809;49.594;8.734;2022-07-18T15:24:29;38.20;35.20
34574;DHT22;20809;49.594;8.734;2022-07-18T15:27:30;38.10;35.20
34574;DHT22;20809;49.594;8.734;2022-07-18T15:30:31;38.00;35.80
34574;DHT22;20809;49.594;8.734;2022-07-18T15:33:32;38.10;36.50
34574;DHT22;20809;49.594;8.734;2022-07-18T15:36:33;38.20;35.40
34574;DHT22;20809;49.594;8.734;2022-07-18T15:39:34;38.10;36.30
34574;DHT22;20809;49.594;8.734;2022-07-18T15:42:34;38.10;35.60
34574;DHT22;20809;49.594;8.734;2022-07-18T15:45:36;38.10;34.90
34574;DHT22;20809;49.594;8.734;2022-07-18T15:48:36;37.70;35.10
34574;DHT22;20809;49.594;8.734;2022-07-18T15:51:38;37.50;36.20
34574;DHT22;20809;49.594;8.734;2022-07-18T15:54:41;37.50;35.50
34574;DHT22;20809;49.594;8.734;2022-07-18T15:57:43;37.30;35.80
34574;DHT22;20809;49.594;8.734;2022-07-18T16:00:44;37.20;36.50
34574;DHT22;20809;49.594;8.734;2022-07-18T16:03:45;37.10;35.20
34574;DHT22;20809;49.594;8.734;2022-07-18T16:06:46;37.10;35.70
34574;DHT22;20809;49.594;8.734;2022-07-18T16:09:46;37.00;36.30
34574;DHT22;20809;49.594;8.734;2022-07-18T16:12:47;36.90;36.10
34574;DHT22;20809;49.594;8.734;2022-07-18T16:15:48;36.80;36.20
34574;DHT22;20809;49.594;8.734;2022-07-18T16:18:48;36.80;36.00
34574;DHT22;20809;49.594;8.734;2022-07-18T16:21:49;36.60;36.90
34574;DHT22;20809;49.594;8.734;2022-07-18T16:24:50;36.50;36.30
34574;DHT22;20809;49.594;8.734;2022-07-18T16:28:08;36.50;36.80
34574;DHT22;20809;49.594;8.734;2022-07-18T16:31:09;36.60;36.50
34574;DHT22;20809;49.594;8.734;2022-07-18T16:34:09;36.70;36.00
34574;DHT22;20809;49.594;8.734;2022-07-18T16:37:10;36.60;35.50
34574;DHT22;20809;49.594;8.734;2022-07-18T16:40:11;36.30;36.10
34574;DHT22;20809;49.594;8.734;2022-07-18T16:43:12;36.10;36.20
34574;DHT22;20809;49.594;8.734;2022-07-18T16:46:13;35.90;36.60
34574;DHT22;20809;49.594;8.734;2022-07-18T16:49:14;35.90;37.20
34574;DHT22;20809;49.594;8.734;2022-07-18T16:52:18;36.10;36.90
34574;DHT22;20809;49.594;8.734;2022-07-18T16:55:19;36.30;36.50
34574;DHT22;20809;49.594;8.734;2022-07-18T16:58:20;36.50;37.20
34574;DHT22;20809;49.594;8.734;2022-07-18T17:01:27;36.70;36.40
34574;DHT22;20809;49.594;8.734;2022-07-18T17:04:53;37.00;36.60
34574;DHT22;20809;49.594;8.734;2022-07-18T17:07:54;37.20;35.90
34574;DHT22;20809;49.594;8.734;2022-07-18T17:10:55;37.30;36.30
34574;DHT22;20809;49.594;8.734;2022-07-18T17:13:56;37.50;36.10
34574;DHT22;20809;49.594;8.734;2022-07-18T17:16:57;37.70;35.50
34574;DHT22;20809;49.594;8.734;2022-07-18T17:19:59;37.80;35.50
34574;DHT22;20809;49.594;8.734;2022-07-18T17:23:00;37.80;35.80
34574;DHT22;20809;49.594;8.734;2022-07-18T17:26:01;37.90;35.60
34574;DHT22;20809;49.594;8.734;2022-07-18T17:29:06;38.10;35.40
34574;DHT22;20809;49.594;8.734;2022-07-18T17:32:10;38.40;35.90
34574;DHT22;20809;49.594;8.734;2022-07-18T17:35:12;38.80;35.80
34574;DHT22;20809;49.594;8.734;2022-07-18T17:38:16;39.10;35.00
34574;DHT22;20809;49.594;8.734;2022-07-18T17:41:17;38.90;35.00
34574;DHT22;20809;49.594;8.734;2022-07-18T17:44:19;38.70;35.20
34574;DHT22;20809;49.594;8.734;2022-07-18T17:47:24;38.00;35.50
34574;DHT22;20809;49.594;8.734;2022-07-18T17:50:25;36.80;36.90
34574;DHT22;20809;49.594;8.734;2022-07-18T17:53:27;35.70;37.40
34574;DHT22;20809;49.594;8.734;2022-07-18T17:56:28;34.80;39.60
34574;DHT22;20809;49.594;8.734;2022-07-18T17:59:30;34.10;40.70
34574;DHT22;20809;49.594;8.734;2022-07-18T18:02:31;33.60;41.30
34574;DHT22;20809;49.594;8.734;2022-07-18T18:05:32;33.20;42.30
34574;DHT22;20809;49.594;8.734;2022-07-18T18:08:32;32.90;43.10
34574;DHT22;20809;49.594;8.734;2022-07-18T18:11:33;32.60;43.10
34574;DHT22;20809;49.594;8.734;2022-07-18T18:14:34;32.50;44.00
34574;DHT22;20809;49.594;8.734;2022-07-18T18:17:35;32.30;44.50
34574;DHT22;20809;49.594;8.734;2022-07-18T18:20:36;32.20;44.40
34574;DHT22;20809;49.594;8.734;2022-07-18T18:23:37;32.00;44.60
34574;DHT22;20809;49.594;8.734;2022-07-18T18:26:37;31.90;44.60
34574;DHT22;20809;49.594;8.734;2022-07-18T18:29:38;31.70;45.10
34574;DHT22;20809;49.594;8.734;2022-07-18T18:32:41;31.60;45.80
34574;DHT22;20809;49.594;8.734;2022-07-18T18:35:42;31.40;46.10
34574;DHT22;20809;49.594;8.734;2022-07-18T18:38:43;31.20;47.70
34574;DHT22;20809;49.594;8.734;2022-07-18T18:41:44;31.00;48.00
34574;DHT22;20809;49.594;8.734;2022-07-18T18:44:44;30.90;48.20
34574;DHT22;20809;49.594;8.734;2022-07-18T18:47:45;30.70;47.60
34574;DHT22;20809;49.594;8.734;2022-07-18T18:50:46;30.40;48.30
34574;DHT22;20809;49.594;8.734;2022-07-18T18:53:46;30.20;48.20
34574;DHT22;20809;49.594;8.734;2022-07-18T18:56:47;30.00;49.10
34574;DHT22;20809;49.594;8.734;2022-07-18T18:59:48;29.70;49.50
34574;DHT22;20809;49.594;8.734;2022-07-18T19:02:51;29.60;50.00
34574;DHT22;20809;49.594;8.734;2022-07-18T19:05:52;29.30;50.80
34574;DHT22;20809;49.594;8.734;2022-07-18T19:08:53;29.20;51.00
34574;DHT22;20809;49.594;8.734;2022-07-18T19:11:53;28.90;52.10
34574;DHT22;20809;49.594;8.734;2022-07-18T19:14:54;28.70;53.50
34574;DHT22;20809;49.594;8.734;2022-07-18T19:17:55;28.40;54.60
34574;DHT22;20809;49.594;8.734;2022-07-18T19:20:56;28.20;55.30
34574;DHT22;20809;49.594;8.734;2022-07-18T19:23:56;28.00;56.20
34574;DHT22;20809;49.594;8.734;2022-07-18T19:26:57;27.70;57.00
34574;DHT22;20809;49.594;8.734;2022-07-18T19:29:57;27.50;58.00
34574;DHT22;20809;49.594;8.734;2022-07-18T19:32:58;27.30;58.70
34574;DHT22;20809;49.594;8.734;2022-07-18T19:35:59;27.00;58.70
34574;DHT22;20809;49.594;8.734;2022-07-18T19:38:59;26.80;58.80
34574;DHT22;20809;49.594;8.734;2022-07-18T19:42:00;26.60;59.50
34574;DHT22;20809;49.594;8.734;2022-07-18T19:45:01;26.40;61.10
34574;DHT22;20809;49.594;8.734;2022-07-18T19:48:02;26.20;61.80
34574;DHT22;20809;49.594;8.734;2022-07-18T19:51:02;26.10;62.30
34574;DHT22;20809;49.594;8.734;2022-07-18T19:54:05;25.90;63.70
34574;DHT22;20809;49.594;8.734;2022-07-18T19:57:06;25.80;64.60
34574;DHT22;20809;49.594;8.734;2022-07-18T20:00:07;25.60;64.50